Time;durP1;ratioP1;P1;durP2;ratioP2;P2;SDS_P1;SDS_P2;PMS_P1;PMS_P2;Temp;Humidity;BMP_temperature;BMP_pressure;BME280_temperature;BME280_humidity;BME280_pressure;Samples;Min_cycle;Max_cycle;Signal;HPM_P1;HPM_P2
2023/05/10 00:00:43;;;;;;;15.60;6.13;;;;;;;9.26;43.59;100274.84;7348523;19;20018;-74
2023/05/10 00:03:08;;;;;;;18.08;6.82;;;;;;;9.25;43.94;100276.66;7346057;19;20537;-75
2023/05/10 00:05:34;;;;;;;11.80;6.82;;;;;;;9.25;43.99;100271.34;7350282;19;20327;-72
2023/05/10 00:08:00;;;;;;;13.68;5.63;;;;;;;9.23;43.07;100265.25;7352409;19;20018;-71
2023/05/10 00:10:25;;;;;;;10.93;6.63;;;;;;;9.20;41.17;100264.56;7354176;19;20096;-75
2023/05/10 00:12:50;;;;;;;10.10;6.03;;;;;;;9.18;40.28;100263.78;7353417;19;20014;-71
2023/05/10 00:15:15;;;;;;;15.63;6.43;;;;;;;9.20;42.26;100269.88;7344730;19;20074;-68
2023/05/10 00:17:40;;;;;;;12.52;6.03;;;;;;;9.22;44.17;100270.66;7347658;19;20052;-69
2023/05/10 00:20:05;;;;;;;17.58;6.68;;;;;;;9.22;44.98;100275.97;7348328;19;20014;-70
2023/05/10 00:22:31;;;;;;;11.90;6.32;;;;;;;9.21;41.24;100263.59;7350497;19;20463;-71
2023/05/10 00:24:56;;;;;;;16.33;5.90;;;;;;;9.21;40.96;100266.28;7350909;19;20090;-72
2023/05/10 00:27:20;;;;;;;12.77;6.05;;;;;;;9.22;40.72;100260.00;7349159;19;20010;-67
2023/05/10 00:29:45;;;;;;;12.05;6.65;;;;;;;9.21;41.09;100269.78;7346224;19;20018;-68
2023/05/10 00:32:09;;;;;;;15.13;6.72;;;;;;;9.23;41.47;100269.72;7345581;19;20095;-68
2023/05/10 00:34:34;;;;;;;10.23;5.82;;;;;;;9.24;42.88;100279.41;7340075;19;20089;-68
2023/05/10 00:36:59;;;;;;;14.45;6.47;;;;;;;9.19;42.43;100271.66;7343249;19;20018;-69
2023/05/10 00:39:23;;;;;;;10.23;6.65;;;;;;;9.22;42.07;100279.50;7351804;19;20022;-68
2023/05/10 00:41:48;;;;;;;23.02;7.25;;;;;;;9.20;42.58;100273.38;7359157;19;20513;-69
2023/05/10 00:44:15;;;;;;;12.63;6.25;;;;;;;9.21;43.48;100275.13;7354315;19;20031;-68
2023/05/10 00:46:48;;;;;;;13.60;6.47;;;;;;;9.19;45.12;100270.81;7350981;19;20025;-70
2023/05/10 00:49:20;;;;;;;11.52;6.40;;;;;;;9.18;46.29;100271.75;7351408;19;20006;-72
2023/05/10 00:51:45;;;;;;;14.07;6.57;;;;;;;9.12;46.47;100277.44;7356605;19;20015;-68
2023/05/10 00:54:14;;;;;;;12.68;7.13;;;;;;;9.14;46.45;100271.09;7353480;19;20010;-72
2023/05/10 00:56:39;;;;;;;15.05;6.45;;;;;;;9.08;45.68;100274.94;7354025;19;20085;-69
2023/05/10 00:59:04;;;;;;;15.90;6.00;;;;;;;9.02;44.81;100266.44;7352520;19;20166;-70
2023/05/10 01:01:29;;;;;;;15.25;6.75;;;;;;;9.04;45.47;100272.50;7351410;19;20022;-69
2023/05/10 01:03:55;;;;;;;20.20;7.05;;;;;;;9.01;47.01;100273.56;7351206;19;20030;-68
2023/05/10 01:06:20;;;;;;;13.43;6.50;;;;;;;8.93;46.90;100267.78;7350879;19;20565;-75
2023/05/10 01:08:45;;;;;;;11.23;5.72;;;;;;;8.93;45.48;100269.59;7353491;19;20545;-71
2023/05/10 01:11:10;;;;;;;10.73;5.25;;;;;;;8.93;45.55;100267.78;7345093;19;20488;-67
2023/05/10 01:13:39;;;;;;;10.13;5.93;;;;;;;8.96;45.60;100270.28;7346294;19;20039;-65
2023/05/10 01:16:04;;;;;;;15.50;6.88;;;;;;;8.94;45.72;100265.97;7346519;19;20105;-65
2023/05/10 01:18:33;;;;;;;15.90;6.82;;;;;;;8.94;45.52;100261.53;7346427;19;20031;-66
2023/05/10 01:21:31;;;;;;;10.70;6.20;;;;;;;9.04;45.29;100264.53;7343855;19;20082;-67
2023/05/10 01:24:15;;;;;;;9.90;5.22;;;;;;;9.03;44.27;100255.69;7348611;19;20014;-68
2023/05/10 01:26:54;;;;;;;;;;;;;;;9.12;43.70;100258.81;7347036;19;20006;-68
2023/05/10 01:29:40;;;;;;;11.30;6.15;;;;;;;9.01;45.79;100265.59;7351097;19;20337;-67
2023/05/10 01:32:16;;;;;;;16.38;6.47;;;;;;;8.98;47.05;100268.41;7345863;19;20017;-68
2023/05/10 01:34:59;;;;;;;10.73;6.53;;;;;;;8.98;47.44;100273.72;7348795;19;20091;-68
2023/05/10 01:37:46;;;;;;;9.00;6.07;;;;;;;8.97;46.35;100269.34;7351581;19;20019;-67
2023/05/10 01:40:18;;;;;;;9.75;5.47;;;;;;;8.86;45.54;100269.06;7351860;19;20026;-66
2023/05/10 01:42:54;;;;;;;23.97;7.17;;;;;;;8.88;45.33;100272.50;7347661;19;20026;-67
2023/05/10 01:45:31;;;;;;;15.98;6.57;;;;;;;8.90;45.25;100264.47;7351386;19;20018;-72
2023/05/10 01:48:19;;;;;;;15.45;6.25;;;;;;;8.91;45.46;100261.72;7349664;19;20010;-73
2023/05/10 01:50:46;;;;;;;11.32;6.38;;;;;;;8.83;46.24;100263.91;7345635;19;20006;-68
2023/05/10 01:53:12;;;;;;;11.20;6.00;;;;;;;8.81;46.14;100268.44;7348140;19;20019;-68
2023/05/10 01:55:46;;;;;;;11.60;5.85;;;;;;;8.85;46.41;100267.34;7342109;19;20041;-67
2023/05/10 01:58:15;;;;;;;11.17;6.03;;;;;;;8.82;47.34;100264.84;7344086;19;20013;-67
2023/05/10 02:00:45;;;;;;;26.40;6.45;;;;;;;8.84;47.95;100260.31;7344930;19;20252;-69
2023/05/10 02:03:17;;;;;;;10.60;5.68;;;;;;;8.80;48.14;100257.94;7347655;19;20014;-68
2023/05/10 02:05:48;;;;;;;12.90;5.28;;;;;;;8.81;48.78;100264.94;7349116;19;20830;-70
2023/05/10 02:08:16;;;;;;;7.72;4.97;;;;;;;8.80;49.05;100263.25;7343929;19;20025;-70
2023/05/10 02:10:42;;;;;;;14.40;6.30;;;;;;;8.81;48.82;100268.44;7348595;19;20075;-70
2023/05/10 02:13:10;;;;;;;12.02;5.25;;;;;;;8.83;49.36;100269.22;7350161;19;20018;-70
2023/05/10 02:15:38;;;;;;;13.50;5.38;;;;;;;8.86;48.71;100266.41;7346048;19;20006;-77
2023/05/10 02:18:05;;;;;;;13.88;5.88;;;;;;;8.87;48.21;100260.16;7363300;19;20023;-76
2023/05/10 02:20:32;;;;;;;12.32;6.50;;;;;;;8.87;47.83;100260.16;7353500;19;20018;-75
2023/05/10 02:22:58;;;;;;;10.38;5.85;;;;;;;8.90;48.40;100264.47;7349022;19;20015;-76
2023/05/10 02:25:25;;;;;;;11.73;5.88;;;;;;;8.89;48.74;100260.94;7345894;19;20014;-74
2023/05/10 02:27:51;;;;;;;15.63;6.10;;;;;;;8.90;48.51;100264.47;7345451;19;20473;-75
2023/05/10 02:30:18;;;;;;;12.18;5.88;;;;;;;8.92;48.64;100258.09;7343648;19;20010;-73
2023/05/10 02:32:44;;;;;;;10.80;5.43;;;;;;;8.91;47.26;100259.06;7343541;19;20023;-74
2023/05/10 02:35:10;;;;;;;8.70;5.28;;;;;;;8.90;46.18;100254.69;7344549;19;20118;-73
2023/05/10 02:37:38;;;;;;;10.00;5.15;;;;;;;8.94;46.04;100250.03;7347180;19;20466;-73
2023/05/10 02:40:06;;;;;;;11.50;4.75;;;;;;;8.96;46.34;100249.00;7345425;19;20022;-74
2023/05/10 02:42:35;;;;;;;10.32;5.20;;;;;;;8.98;46.28;100252.44;7343626;19;20011;-74
2023/05/10 02:45:07;;;;;;;10.95;5.65;;;;;;;9.03;47.30;100255.69;7339902;19;20014;-73
2023/05/10 02:47:34;;;;;;;9.73;6.50;;;;;;;9.02;47.59;100258.47;7344171;19;20022;-76
2023/05/10 02:49:59;;;;;;;9.73;5.78;;;;;;;9.08;47.51;100266.94;7344662;19;20452;-76
2023/05/10 02:52:28;;;;;;;9.50;5.55;;;;;;;9.13;46.47;100250.75;7346427;19;20018;-76
2023/05/10 02:55:02;;;;;;;7.43;4.90;;;;;;;9.18;48.00;100247.81;7347288;19;20014;-76
2023/05/10 02:57:37;;;;;;;12.55;5.80;;;;;;;9.21;47.82;100252.97;7350103;19;20379;-77
2023/05/10 03:00:03;;;;;;;13.38;6.03;;;;;;;9.22;47.37;100249.38;7349751;19;20028;-78
2023/05/10 03:02:32;;;;;;;10.32;5.30;;;;;;;9.27;48.02;100250.81;7344071;19;20014;-74
2023/05/10 03:04:57;;;;;;;16.70;5.65;;;;;;;9.31;48.55;100243.53;7344122;19;20013;-75
2023/05/10 03:07:23;;;;;;;17.88;6.38;;;;;;;9.35;48.28;100251.25;7342530;19;20094;-74
2023/05/10 03:09:49;;;;;;;11.05;6.00;;;;;;;9.40;48.31;100238.53;7343481;19;20349;-74
2023/05/10 03:12:41;;;;;;;11.82;5.55;;;;;;;9.56;48.05;100248.31;7344220;19;20692;-70
2023/05/10 03:15:37;;;;;;;9.38;4.88;;;;;;;9.61;48.20;100246.22;7343283;19;20021;-72
2023/05/10 03:18:11;;;;;;;12.20;5.47;;;;;;;9.61;49.14;100249.75;7342599;19;20018;-74
2023/05/10 03:20:41;;;;;;;14.30;5.03;;;;;;;9.64;48.87;100246.06;7345370;19;20026;-73
2023/05/10 03:23:17;;;;;;;22.85;5.88;;;;;;;9.73;48.04;100240.19;7345512;19;20022;-73
2023/05/10 03:25:43;;;;;;;23.90;5.95;;;;;;;9.71;47.49;100242.06;7343320;19;20023;-73
2023/05/10 03:28:10;;;;;;;13.82;5.40;;;;;;;9.76;47.26;100248.00;7344135;19;20034;-73
2023/05/10 03:30:36;;;;;;;11.20;4.68;;;;;;;9.81;46.88;100244.13;7345340;19;20584;-74
2023/05/10 03:33:07;;;;;;;8.65;5.35;;;;;;;9.92;47.08;100242.66;7345028;19;20461;-74
2023/05/10 03:35:36;;;;;;;15.52;5.55;;;;;;;9.94;47.25;100248.72;7341780;19;20026;-73
2023/05/10 03:38:01;;;;;;;14.85;5.13;;;;;;;9.98;47.95;100255.59;7343818;19;20333;-75
2023/05/10 03:40:28;;;;;;;12.93;5.18;;;;;;;10.01;48.18;100248.28;7344120;19;20419;-75
2023/05/10 03:42:55;;;;;;;12.25;5.18;;;;;;;10.06;47.58;100250.66;7337987;19;20018;-68
2023/05/10 03:45:19;;;;;;;12.05;5.28;;;;;;;10.10;47.38;100238.88;7339773;19;20365;-77
2023/05/10 03:47:44;;;;;;;10.82;5.95;;;;;;;10.13;45.22;100241.34;7341074;19;20419;-79
2023/05/10 03:50:10;;;;;;;12.02;5.03;;;;;;;10.17;45.57;100238.41;7341018;19;20026;-78
2023/05/10 03:52:34;;;;;;;17.58;5.50;;;;;;;10.22;43.37;100232.84;7341552;19;20025;-79
2023/05/10 03:54:59;;;;;;;13.80;6.43;;;;;;;10.27;44.53;100243.22;7340339;19;20022;-78
2023/05/10 03:57:24;;;;;;;16.08;4.78;;;;;;;10.33;44.14;100240.19;7341135;19;20077;-78
2023/05/10 03:59:49;;;;;;;16.65;5.47;;;;;;;10.40;44.83;100245.03;7341911;19;20026;-79
2023/05/10 04:02:15;;;;;;;10.43;4.95;;;;;;;10.47;44.18;100245.53;7341414;19;20093;-78
2023/05/10 04:04:40;;;;;;;9.48;5.10;;;;;;;10.52;43.05;100230.09;7340921;19;20051;-79
2023/05/10 04:07:05;;;;;;;9.00;4.45;;;;;;;10.58;43.05;100237.72;7343220;19;20669;-78
2023/05/10 04:09:30;;;;;;;11.95;5.10;;;;;;;10.66;41.47;100226.56;7341739;19;20095;-79
2023/05/10 04:11:55;;;;;;;7.63;3.97;;;;;;;10.72;40.87;100220.88;7358216;19;20295;-79
2023/05/10 04:14:20;;;;;;;12.70;5.30;;;;;;;10.81;40.35;100226.47;7352706;19;20380;-78
2023/05/10 04:16:45;;;;;;;10.43;4.85;;;;;;;10.92;41.11;100233.81;7343103;19;20020;-80
2023/05/10 04:19:10;;;;;;;8.15;4.63;;;;;;;11.01;39.80;100227.88;7343711;19;20015;-79
2023/05/10 04:21:34;;;;;;;7.55;4.45;;;;;;;11.04;41.65;100222.34;7342823;19;20367;-79
2023/05/10 04:24:00;;;;;;;10.93;4.82;;;;;;;11.11;40.59;100229.00;7343239;19;20042;-80
2023/05/10 04:26:25;;;;;;;9.60;4.50;;;;;;;11.19;41.74;100231.16;7342300;19;20074;-78
2023/05/10 04:28:50;;;;;;;8.40;4.85;;;;;;;11.31;41.10;100225.03;7341908;19;20020;-79
2023/05/10 04:31:14;;;;;;;13.70;4.85;;;;;;;11.39;38.60;100221.88;7341593;19;20023;-76
2023/05/10 04:33:39;;;;;;;9.18;4.30;;;;;;;11.45;38.84;100216.13;7343059;19;20415;-77
2023/05/10 04:36:04;;;;;;;9.93;4.97;;;;;;;11.52;38.01;100217.41;7342137;19;20007;-76
2023/05/10 04:38:30;;;;;;;13.35;5.20;;;;;;;11.58;37.51;100214.34;7342592;19;20092;-78
2023/05/10 04:41:03;;;;;;;13.38;5.00;;;;;;;11.73;38.07;100220.50;7341821;19;20019;-77
2023/05/10 04:43:28;;;;;;;8.95;4.20;;;;;;;11.77;37.96;100216.69;7342163;19;20074;-78
2023/05/10 04:45:56;;;;;;;8.02;5.32;;;;;;;11.92;37.24;100221.00;7341299;19;20039;-76
2023/05/10 04:48:21;;;;;;;7.88;6.07;;;;;;;11.97;38.05;100213.50;7342688;19;20027;-75
2023/05/10 04:50:46;;;;;;;10.50;4.13;;;;;;;12.10;36.74;100209.03;7342232;19;20014;-76
2023/05/10 04:53:10;;;;;;;14.10;4.53;;;;;;;12.27;37.18;100210.56;7340377;19;20033;-77
2023/05/10 04:55:38;;;;;;;10.82;5.18;;;;;;;12.39;36.07;100214.19;7343641;19;20358;-79
2023/05/10 04:58:03;;;;;;;8.90;4.25;;;;;;;12.50;36.81;100199.13;7342903;19;20354;-78
2023/05/10 05:00:28;;;;;;;12.20;4.70;;;;;;;12.65;36.04;100205.19;7343547;19;20430;-77
2023/05/10 05:02:52;;;;;;;11.25;5.03;;;;;;;12.83;35.59;100203.03;7340180;19;20007;-79
2023/05/10 05:05:17;;;;;;;13.30;5.38;;;;;;;13.00;35.30;100210.69;7340919;19;20035;-79
2023/05/10 05:07:42;;;;;;;12.40;4.50;;;;;;;13.20;35.34;100203.94;7340814;19;20017;-79
2023/05/10 05:10:08;;;;;;;14.10;5.78;;;;;;;13.31;34.89;100204.00;7343116;19;20013;-79
2023/05/10 05:12:33;;;;;;;11.77;5.28;;;;;;;13.42;34.77;100201.38;7341206;19;20339;-79
2023/05/10 05:14:58;;;;;;;9.07;4.18;;;;;;;13.59;34.82;100205.47;7340018;19;20019;-79
2023/05/10 05:17:22;;;;;;;11.55;4.68;;;;;;;13.78;33.89;100203.09;7342248;19;20010;-78
2023/05/10 05:19:47;;;;;;;7.53;4.13;;;;;;;13.86;34.16;100189.13;7344245;19;20033;-79
2023/05/10 05:22:12;;;;;;;6.88;4.70;;;;;;;14.03;33.96;100192.22;7341342;19;20018;-79
2023/05/10 05:24:37;;;;;;;15.10;5.45;;;;;;;14.26;34.72;100201.16;7344054;19;20104;-80
2023/05/10 05:27:02;;;;;;;7.88;3.78;;;;;;;14.49;33.33;100183.28;7349681;19;20019;-79
2023/05/10 05:29:27;;;;;;;14.55;4.32;;;;;;;14.76;32.55;100186.47;7348647;19;20025;-82
2023/05/10 05:31:52;;;;;;;14.48;4.57;;;;;;;15.00;31.82;100180.97;7348508;19;20015;-79
2023/05/10 05:34:17;;;;;;;10.27;3.35;;;;;;;15.19;30.44;100181.16;7347354;19;20019;-78
2023/05/10 05:36:42;;;;;;;8.13;3.72;;;;;;;15.41;30.76;100177.56;7345243;19;20018;-75
2023/05/10 05:39:07;;;;;;;8.93;4.07;;;;;;;15.56;31.20;100176.31;7346026;19;20088;-75
2023/05/10 05:41:31;;;;;;;11.65;4.32;;;;;;;15.71;30.02;100165.22;7344079;19;20014;-75
2023/05/10 05:43:56;;;;;;;8.75;3.97;;;;;;;16.02;30.17;100174.25;7349816;19;20021;-74
2023/05/10 05:46:20;;;;;;;15.57;4.05;;;;;;;16.21;29.79;100163.63;7346448;19;20006;-75
2023/05/10 05:48:45;;;;;;;14.20;3.85;;;;;;;16.54;29.88;100167.88;7346520;19;20011;-75
2023/05/10 05:51:11;;;;;;;5.75;3.55;;;;;;;16.83;29.25;100162.63;7346831;19;20014;-75
2023/05/10 05:53:36;;;;;;;8.10;2.75;;;;;;;16.94;28.07;100158.00;7345923;19;20013;-76
2023/05/10 05:56:01;;;;;;;6.43;3.55;;;;;;;17.02;27.36;100155.47;7343837;19;20014;-76
2023/05/10 05:58:26;;;;;;;7.38;3.58;;;;;;;17.11;27.37;100166.41;7346891;19;20019;-75
2023/05/10 06:00:52;;;;;;;6.50;2.90;;;;;;;17.27;27.76;100161.31;7348444;19;20011;-75
2023/05/10 06:03:20;;;;;;;9.40;3.20;;;;;;;17.46;27.72;100158.66;7351463;19;20029;-75
2023/05/10 06:05:48;;;;;;;6.18;2.65;;;;;;;17.48;26.33;100154.00;7348654;19;20472;-77
2023/05/10 06:08:13;;;;;;;7.15;3.17;;;;;;;17.41;26.67;100160.91;7350446;19;20014;-76
2023/05/10 06:10:38;;;;;;;6.63;3.50;;;;;;;17.43;26.93;100154.41;7347177;19;20545;-75
2023/05/10 06:13:03;;;;;;;6.28;3.22;;;;;;;17.54;26.90;100155.25;7346012;19;20461;-76
2023/05/10 06:15:28;;;;;;;10.45;3.33;;;;;;;17.55;26.22;100154.25;7344411;19;20457;-76
2023/05/10 06:17:52;;;;;;;7.50;3.38;;;;;;;17.50;26.04;100151.97;7345842;19;20011;-78
2023/05/10 06:20:17;;;;;;;3.58;2.60;;;;;;;17.52;26.48;100147.31;7348930;19;20011;-77
2023/05/10 06:22:42;;;;;;;4.32;2.58;;;;;;;17.53;26.56;100151.72;7353840;19;20011;-78
2023/05/10 06:25:07;;;;;;;5.00;2.83;;;;;;;17.57;26.02;100146.91;7350435;19;20023;-76
2023/05/10 06:27:33;;;;;;;4.25;3.05;;;;;;;17.59;25.87;100151.16;7349477;19;20015;-77
2023/05/10 06:29:58;;;;;;;7.10;2.78;;;;;;;17.67;25.97;100150.47;7352717;19;20021;-76
2023/05/10 06:32:23;;;;;;;2.45;2.17;;;;;;;17.80;25.45;100142.09;7345616;19;20406;-75
2023/05/10 06:34:47;;;;;;;5.57;2.70;;;;;;;17.87;25.30;100146.75;7347761;19;20018;-74
2023/05/10 06:37:12;;;;;;;6.47;3.33;;;;;;;17.98;25.36;100146.59;7342919;19;20011;-79
2023/05/10 06:39:37;;;;;;;15.50;2.78;;;;;;;18.09;25.26;100143.72;7345649;19;20366;-76
2023/05/10 06:42:04;;;;;;;3.47;2.42;;;;;;;18.16;24.43;100146.72;7346807;19;20011;-77
2023/05/10 06:44:31;;;;;;;3.75;2.50;;;;;;;18.22;25.50;100138.03;7347167;19;20115;-78
2023/05/10 06:46:57;;;;;;;4.75;3.00;;;;;;;18.32;24.86;100138.84;7346379;19;20014;-79
2023/05/10 06:49:21;;;;;;;9.20;3.17;;;;;;;18.42;24.84;100136.97;7346620;19;20025;-78
2023/05/10 06:51:46;;;;;;;2.40;2.10;;;;;;;18.49;24.58;100131.84;7348539;19;20019;-78
2023/05/10 06:54:11;;;;;;;12.77;3.80;;;;;;;18.55;24.60;100130.38;7346448;19;20015;-79
2023/05/10 06:56:35;;;;;;;5.68;3.72;;;;;;;18.63;24.56;100125.09;7347497;19;20015;-78
2023/05/10 06:59:00;;;;;;;5.93;2.92;;;;;;;18.72;24.07;100130.50;7345820;19;20014;-80
2023/05/10 07:01:25;;;;;;;3.53;2.90;;;;;;;18.81;24.10;100129.59;7347410;19;20100;-79
2023/05/10 07:03:50;;;;;;;5.72;3.05;;;;;;;18.96;24.16;100137.19;7344517;19;20414;-78
2023/05/10 07:06:15;;;;;;;3.17;2.75;;;;;;;19.12;23.53;100130.09;7345828;19;20026;-78
2023/05/10 07:08:39;;;;;;;7.32;3.00;;;;;;;19.30;23.45;100130.09;7346340;19;20010;-80
2023/05/10 07:11:07;;;;;;;3.60;2.80;;;;;;;19.38;23.21;100126.66;7344929;19;20016;-79
2023/05/10 07:13:32;;;;;;;8.68;3.30;;;;;;;19.37;22.89;100131.22;7345705;19;20365;-78
2023/05/10 07:15:58;;;;;;;4.15;2.88;;;;;;;19.34;23.18;100128.81;7343596;19;20402;-79
2023/05/10 07:18:22;;;;;;;6.57;3.28;;;;;;;19.62;23.50;100123.34;7344301;19;20056;-79
2023/05/10 07:20:47;;;;;;;7.93;3.17;;;;;;;20.02;22.72;100115.56;7345001;19;20014;-78
2023/05/10 07:23:12;;;;;;;10.95;3.45;;;;;;;20.42;22.52;100106.88;7345488;19;20370;-75
2023/05/10 07:25:37;;;;;;;6.35;3.97;;;;;;;21.09;22.43;100101.53;7344939;19;20022;-75
2023/05/10 07:28:02;;;;;;;6.70;3.05;;;;;;;21.82;21.38;100102.47;7345562;19;20014;-74
2023/05/10 07:30:27;;;;;;;9.35;3.78;;;;;;;22.28;20.83;100092.75;7342990;19;20015;-75
2023/05/10 07:32:52;;;;;;;7.38;3.50;;;;;;;22.91;20.78;100101.91;7341466;19;20015;-75
2023/05/10 07:35:17;;;;;;;7.75;3.67;;;;;;;23.50;20.71;100100.34;7339671;19;20082;-74
2023/05/10 07:37:42;;;;;;;3.65;3.00;;;;;;;24.09;19.54;100095.06;7341362;19;20014;-75
2023/05/10 07:40:07;;;;;;;6.07;3.30;;;;;;;24.41;19.17;100093.91;7341315;19;20465;-76
2023/05/10 07:42:31;;;;;;;3.80;3.33;;;;;;;24.67;18.67;100093.44;7341018;19;20033;-74
2023/05/10 07:44:56;;;;;;;7.53;3.13;;;;;;;24.95;18.72;100095.28;7341065;19;20019;-76
2023/05/10 07:47:21;;;;;;;4.00;3.33;;;;;;;25.19;18.85;100094.09;7339959;19;20123;-74
2023/05/10 07:49:45;;;;;;;4.95;3.55;;;;;;;25.28;18.48;100090.19;7342650;19;20472;-75
2023/05/10 07:52:10;;;;;;;4.70;3.30;;;;;;;25.18;18.60;100094.28;7343366;19;20023;-74
2023/05/10 07:54:35;;;;;;;9.70;3.60;;;;;;;25.17;18.44;100089.91;7342655;19;20007;-74
2023/05/10 07:57:00;;;;;;;5.18;3.33;;;;;;;25.43;18.71;100087.44;7342299;19;20492;-73
2023/05/10 07:59:25;;;;;;;5.18;3.17;;;;;;;25.85;18.71;100086.56;7340341;19;20018;-74
2023/05/10 08:01:51;;;;;;;5.30;3.63;;;;;;;26.18;17.83;100089.59;7342113;19;20529;-76
2023/05/10 08:04:15;;;;;;;6.10;3.40;;;;;;;26.55;17.94;100077.41;7342629;19;20445;-75
2023/05/10 08:06:40;;;;;;;5.00;3.38;;;;;;;27.02;18.16;100079.34;7341732;19;20502;-76
2023/05/10 08:09:05;;;;;;;3.42;3.10;;;;;;;27.65;17.73;100074.44;7340448;19;20022;-76
2023/05/10 08:11:30;;;;;;;9.32;3.58;;;;;;;28.47;17.44;100064.91;7340247;19;20481;-76
2023/05/10 08:13:54;;;;;;;8.70;3.43;;;;;;;29.41;16.20;100069.81;7345461;19;20206;-76
2023/05/10 08:16:20;;;;;;;4.57;3.53;;;;;;;30.42;15.01;100059.41;7340170;19;20334;-75
2023/05/10 08:18:46;;;;;;;4.55;4.13;;;;;;;31.29;14.31;100060.88;7340350;19;20521;-75
2023/05/10 08:21:11;;;;;;;5.28;3.53;;;;;;;32.06;14.46;100064.53;7342334;19;20493;-76
2023/05/10 08:23:38;;;;;;;5.82;4.55;;;;;;;32.54;14.20;100057.09;7339506;19;20360;-75
2023/05/10 08:26:03;;;;;;;3.80;3.40;;;;;;;32.84;13.73;100052.25;7343657;19;20011;-76
2023/05/10 08:28:28;;;;;;;4.35;3.95;;;;;;;32.29;13.28;100043.56;7341073;19;20018;-75
2023/05/10 08:30:53;;;;;;;5.00;3.78;;;;;;;32.11;13.70;100045.34;7344262;19;20026;-76
2023/05/10 08:33:18;;;;;;;5.30;3.80;;;;;;;32.51;14.08;100050.13;7364240;19;20014;-75
2023/05/10 08:35:43;;;;;;;5.63;3.80;;;;;;;33.12;13.64;100049.50;7345453;19;20015;-75
2023/05/10 08:38:08;;;;;;;6.38;3.50;;;;;;;33.93;12.86;100047.38;7344510;19;20035;-77
2023/05/10 08:40:36;;;;;;;7.70;4.05;;;;;;;34.52;12.77;100047.75;7343893;19;20031;-75
2023/05/10 08:43:07;;;;;;;6.45;4.50;;;;;;;35.34;12.87;100030.16;7341917;19;20018;-76
2023/05/10 08:45:33;;;;;;;4.88;3.92;;;;;;;36.02;13.03;100034.94;7346731;19;20047;-78
2023/05/10 08:48:02;;;;;;;4.13;3.78;;;;;;;37.17;11.85;100035.81;7340814;19;20303;-77
2023/05/10 08:50:29;;;;;;;5.95;4.80;;;;;;;38.55;11.68;100153.69;7340444;19;20014;-78
2023/05/10 08:52:59;;;;;;;5.20;4.70;;;;;;;39.77;11.24;100040.41;7345390;19;20019;-73
2023/05/10 08:55:26;;;;;;;5.47;5.07;;;;;;;40.87;10.44;100154.19;7340091;19;20438;-70
2023/05/10 08:57:53;;;;;;;6.82;5.53;;;;;;;42.03;9.95;100132.19;7341111;19;20310;-77
2023/05/10 09:00:20;;;;;;;8.80;6.18;;;;;;;42.80;9.40;100151.31;7343578;19;20010;-76
2023/05/10 09:02:47;;;;;;;6.53;5.93;;;;;;;42.14;10.10;100123.63;7347295;19;20352;-78
2023/05/10 09:05:15;;;;;;;6.55;5.95;;;;;;;41.92;9.64;100130.69;7346858;19;20067;-76
2023/05/10 09:07:40;;;;;;;6.47;5.97;;;;;;;42.46;9.83;100101.19;7348354;19;20078;-78
2023/05/10 09:10:06;;;;;;;6.53;5.97;;;;;;;43.28;9.01;100139.66;7350930;19;20014;-75
2023/05/10 09:12:31;;;;;;;7.53;6.75;;;;;;;43.13;9.12;100086.63;7346888;19;20585;-75
2023/05/10 09:14:57;;;;;;;6.72;6.07;;;;;;;41.69;9.55;100120.41;7344931;19;20373;-76
2023/05/10 09:17:25;;;;;;;6.00;5.43;;;;;;;38.93;10.76;100129.91;7346237;19;20025;-75
2023/05/10 09:19:49;;;;;;;5.32;4.93;;;;;;;37.27;11.02;100005.25;7347680;19;20027;-75
2023/05/10 09:22:14;;;;;;;5.15;4.53;;;;;;;37.08;10.71;100009.66;7346536;19;20142;-76
2023/05/10 09:24:44;;;;;;;6.25;4.15;;;;;;;37.66;10.41;100002.81;7347685;19;20039;-74
2023/05/10 09:27:10;;;;;;;5.88;4.10;;;;;;;38.95;10.16;99991.84;7350206;19;20011;-74
2023/05/10 09:29:42;;;;;;;7.03;4.40;;;;;;;40.87;9.59;100002.34;7345386;19;20237;-74
2023/05/10 09:32:09;;;;;;;5.45;5.05;;;;;;;41.96;9.17;100000.13;7345751;19;20010;-75
2023/05/10 09:34:35;;;;;;;5.80;5.28;;;;;;;43.02;9.08;99985.88;7345005;19;20018;-74
2023/05/10 09:37:03;;;;;;;5.85;5.35;;;;;;;42.46;9.05;100007.84;7345290;19;20014;-74
2023/05/10 09:39:33;;;;;;;7.38;5.75;;;;;;;42.01;9.21;100000.00;7345459;19;20011;-75
2023/05/10 09:42:03;;;;;;;15.60;7.20;;;;;;;41.75;9.36;99989.56;7346724;19;20014;-74
2023/05/10 09:44:28;;;;;;;6.18;5.68;;;;;;;41.73;9.45;99992.66;7346838;19;20102;-75
2023/05/10 09:46:53;;;;;;;7.20;6.25;;;;;;;39.94;10.04;99988.94;7347485;19;20014;-76
2023/05/10 09:49:17;;;;;;;5.32;4.93;;;;;;;37.42;10.27;99993.31;7351173;19;20010;-76
2023/05/10 09:51:42;;;;;;;4.65;4.25;;;;;;;34.59;11.27;99973.59;7348234;19;20028;-74
2023/05/10 09:54:15;;;;;;;4.40;4.00;;;;;;;33.38;11.79;99981.75;7347725;19;20021;-77
2023/05/10 09:56:40;;;;;;;5.97;4.00;;;;;;;32.02;12.47;99961.28;7349476;19;20007;-75
2023/05/10 09:59:07;;;;;;;3.92;3.63;;;;;;;31.58;13.24;99976.50;7346860;19;20017;-77
2023/05/10 10:01:33;;;;;;;6.90;4.00;;;;;;;30.65;13.96;99968.78;7346981;19;20070;-77
2023/05/10 10:03:58;;;;;;;6.45;4.32;;;;;;;30.51;14.36;99961.72;7346018;19;20011;-77
2023/05/10 10:06:24;;;;;;;5.60;3.78;;;;;;;31.60;14.40;99956.97;7346528;19;20011;-75
2023/05/10 10:08:50;;;;;;;6.35;3.78;;;;;;;33.36;13.13;99963.72;7347183;19;20047;-76
2023/05/10 10:11:15;;;;;;;5.43;4.28;;;;;;;34.98;12.01;99943.88;7343955;19;20063;-73
2023/05/10 10:13:39;;;;;;;4.70;4.25;;;;;;;36.46;11.50;99940.25;7344484;19;20022;-75
2023/05/10 10:16:05;;;;;;;5.47;4.22;;;;;;;37.95;11.17;99949.31;7343447;19;20021;-75
2023/05/10 10:18:31;;;;;;;5.18;4.60;;;;;;;39.42;10.44;100057.44;7346386;19;20023;-75
2023/05/10 10:20:56;;;;;;;5.63;5.10;;;;;;;40.00;10.02;100060.34;7347370;19;20015;-75
2023/05/10 10:23:21;;;;;;;5.95;5.10;;;;;;;38.47;10.64;100008.25;7347106;19;20018;-74
2023/05/10 10:25:48;;;;;;;5.22;4.75;;;;;;;36.18;11.31;99944.25;7347107;19;20067;-77
2023/05/10 10:28:26;;;;;;;6.63;4.57;;;;;;;34.57;12.08;99946.16;7349458;19;20021;-79
2023/05/10 10:30:55;;;;;;;14.50;4.57;;;;;;;31.85;13.45;99937.44;7352413;19;20018;-77
2023/05/10 10:33:58;;;;;;;4.70;4.15;;;;;;;31.19;14.27;99939.41;7356063;19;20526;-76
2023/05/10 10:36:23;;;;;;;10.80;4.30;;;;;;;29.21;15.32;99935.34;7349766;19;20067;-74
2023/05/10 10:38:47;;;;;;;9.20;4.22;;;;;;;28.14;15.33;99936.09;7348912;19;20023;-72
2023/05/10 10:41:32;;;;;;;6.70;3.88;;;;;;;27.92;15.70;99935.53;7346218;19;20022;-78
2023/05/10 10:44:40;;;;;;;6.22;4.35;;;;;;;27.02;15.85;99928.00;7346795;19;20014;-77
2023/05/10 10:47:11;;;;;;;7.85;3.53;;;;;;;25.71;16.65;99937.31;7346721;19;20471;-76
2023/05/10 10:49:39;;;;;;;5.32;3.67;;;;;;;24.87;17.15;99929.00;7349017;19;20441;-78
2023/05/10 10:52:30;;;;;;;5.97;3.60;;;;;;;24.69;17.47;99934.06;7349196;19;20019;-75
2023/05/10 10:54:57;;;;;;;5.68;3.53;;;;;;;23.88;18.88;99926.97;7346867;19;20029;-74
2023/05/10 10:57:23;;;;;;;10.00;3.97;;;;;;;23.46;18.28;99922.97;7344209;19;20801;-73
2023/05/10 10:59:48;;;;;;;7.30;3.97;;;;;;;23.14;18.94;99925.97;7344735;19;20018;-78
2023/05/10 11:02:53;;;;;;;6.22;3.67;;;;;;;23.16;18.73;99930.22;7348762;19;20018;-77
2023/05/10 11:05:28;;;;;;;4.82;3.42;;;;;;;22.78;19.25;99915.75;7351835;19;20006;-81
2023/05/10 11:07:54;;;;;;;;;;;;;;;22.99;18.47;99916.94;7352229;19;20122;-75
2023/05/10 11:10:20;;;;;;;8.13;4.32;;;;;;;22.26;20.69;99914.69;7348397;19;19923;-73
2023/05/10 11:13:05;;;;;;;9.75;3.67;;;;;;;22.20;19.91;99910.81;7343417;19;20022;-73
2023/05/10 11:15:32;;;;;;;7.60;4.15;;;;;;;21.55;20.00;99915.63;7341730;19;20021;-74
2023/05/10 11:17:57;;;;;;;4.32;3.53;;;;;;;21.29;20.62;99913.13;7342181;19;20015;-75
2023/05/10 11:20:24;;;;;;;9.60;4.25;;;;;;;20.99;20.54;99912.75;7347161;19;20018;-73
2023/05/10 11:22:51;;;;;;;7.47;3.40;;;;;;;20.80;21.13;99914.97;7342915;19;20043;-73
2023/05/10 11:25:16;;;;;;;6.57;3.60;;;;;;;20.61;21.26;99914.28;7343648;19;20020;-75
2023/05/10 11:27:41;;;;;;;5.82;4.07;;;;;;;20.46;22.01;99921.34;7346875;19;20002;-81